Charles Town, WV (25414)

1:30 AM EST on February 11, 2016 (GMT -0500)
Vinton Farm | | Change Station
CLOSE
Current Station
Personal Weather Station
Location: Charles Town, WV
Elevation: 522 ft
Nearby Weather Stations

Elev 522 ft 39.27 °N, 77.86 °W | Updated 31 seconds ago

Clear
Clear
20.8 °F
Feels Like 11 °F
N
8.7
Wind Variable Wind from WSW
Gusts 9.8 mph

Today
High -- | Low -- °F
--% Chance of Precip.
Yesterday
High -- | Low -- °F
Precip. -- in
Pressure 29.97 in
Visibility 10.0 miles
Clouds Clear
Windchill 11 °F
Dew Point 1 °F
Humidity 42%
Rainfall 0.00 in
Snow Depth Not available.
7:08 AM 5:43 PM
Waxing Crescent, 10% visible
METAR KMRB 110553Z AUTO 27016G23KT 10SM CLR M07/M15 A2995 RMK AO2 SLP149 T10671150 11050 21067 53010 TSNO
Pressure 29.97 in
Visibility 10.0 miles
Clouds Clear
Windchill 11 °F
Dew Point 1 °F
Humidity 42%
Rainfall 0.00 in
Snow Depth Not available.
7:08 AM 5:43 PM
Waxing Crescent, 10% visible
METAR KMRB 110553Z AUTO 27016G23KT 10SM CLR M07/M15 A2995 RMK AO2 SLP149 T10671150 11050 21067 53010 TSNO

10-Day Weather Forecast

Almanac

Astronomy

Feb. 11, 2016 Rise Set
Actual Time
Civil Twilight
Nautical Twilight
Astronomical Twilight
Moon
Length of Visible Light
Length of Day
Tomorrow will be .
, % of the Moon is Illuminated

Today's Extremes

State Highs State Lows

Community

WunderPhotos

Upload Photos

1,892,030 photos uploaded!

WunderBlog® & News

Nearby

Air Quality

  Air Quality AQ Index Pollutant
Not available.

Snow Depth

Station Depth Elevation

Earthquake Activity

City Distance Mag. Time & Date
Minimum magnitude displayed is 2.5.

Coastal Water Temperatures

Place Temperature

Stations

Nearby Weather Stations

Station Location Temp. Windchill Dew Point Humidity Wind Precip. Elev Updated Type
                   

Watches & Warnings

There are currently no watches in effect.